createdAt,value
2019-01-31T00:01:25.908Z,16.67
2019-01-31T00:04:17.401Z,16.23
2019-01-31T00:07:24.666Z,15.68
2019-01-31T00:10:23.489Z,15.70
2019-01-31T00:13:22.790Z,14.63
2019-01-31T00:16:25.641Z,15.85
2019-01-31T00:19:35.839Z,15.90
2019-01-31T00:22:50.319Z,15.15
2019-01-31T00:25:59.614Z,16.70
2019-01-31T00:29:16.510Z,16.00
2019-01-31T00:32:15.665Z,14.23
2019-01-31T00:35:10.111Z,14.65
2019-01-31T00:38:05.262Z,14.63
2019-01-31T00:41:05.382Z,13.65
2019-01-31T00:44:11.026Z,12.28
2019-01-31T00:47:09.706Z,12.95
2019-01-31T00:49:50.243Z,13.68
2019-01-31T00:53:11.844Z,12.28
2019-01-31T00:56:11.821Z,12.50
2019-01-31T00:59:17.246Z,12.65
2019-01-31T01:02:33.060Z,12.75
2019-01-31T01:05:30.107Z,10.53
2019-01-31T01:08:11.872Z,10.53
2019-01-31T01:11:24.158Z,10.08
2019-01-31T01:14:43.640Z,8.93
2019-01-31T01:17:32.407Z,9.60
2019-01-31T01:20:28.940Z,8.93
2019-01-31T01:23:40.342Z,8.88
2019-01-31T01:26:43.701Z,8.30
2019-01-31T01:29:33.747Z,8.18
2019-01-31T01:32:32.675Z,8.18
2019-01-31T01:35:50.744Z,6.92
2019-01-31T01:39:03.786Z,6.03
2019-01-31T01:42:31.508Z,4.70
2019-01-31T01:45:37.170Z,3.17
2019-01-31T01:48:29.005Z,2.72
2019-01-31T01:51:36.129Z,2.08
2019-01-31T01:55:01.421Z,1.87
2019-01-31T01:58:08.415Z,1.52
2019-01-31T02:01:10.108Z,1.82
2019-01-31T02:04:14.782Z,1.50
2019-01-31T02:07:31.346Z,1.57
2019-01-31T02:10:32.867Z,1.77
2019-01-31T02:13:34.060Z,1.50
2019-01-31T02:16:47.666Z,1.37
2019-01-31T02:20:00.334Z,1.27
2019-01-31T02:22:53.558Z,1.20
2019-01-31T02:25:50.647Z,1.22
2019-01-31T02:28:28.087Z,1.12
2019-01-31T02:31:40.332Z,1.15
2019-01-31T02:34:36.158Z,1.10
2019-01-31T02:37:51.824Z,1.30
2019-01-31T02:41:14.488Z,1.40
2019-01-31T02:44:06.168Z,1.30
2019-01-31T02:47:24.259Z,1.27
2019-01-31T02:50:09.129Z,1.12
2019-01-31T02:53:11.487Z,1.30
2019-01-31T02:56:00.646Z,1.22
2019-01-31T02:59:05.123Z,1.30
2019-01-31T03:02:16.544Z,1.30
2019-01-31T03:05:27.851Z,1.40
2019-01-31T03:08:11.183Z,1.35
2019-01-31T03:10:53.725Z,1.25
2019-01-31T03:14:16.691Z,1.20
2019-01-31T03:17:18.457Z,1.25
2019-01-31T03:20:38.935Z,1.00
2019-01-31T03:23:49.334Z,1.00
2019-01-31T03:27:07.526Z,1.10
2019-01-31T03:30:37.343Z,0.93
2019-01-31T03:33:30.579Z,0.70
2019-01-31T03:36:29.550Z,0.78
2019-01-31T03:39:31.442Z,0.90
2019-01-31T03:42:38.723Z,0.65
2019-01-31T03:45:49.476Z,0.85
2019-01-31T03:49:06.895Z,0.60
2019-01-31T03:52:27.409Z,0.90
2019-01-31T03:55:22.017Z,0.90
2019-01-31T03:58:42.813Z,0.40
2019-01-31T04:02:03.410Z,0.62
2019-01-31T04:05:14.662Z,0.50
2019-01-31T04:07:45.329Z,1.10
2019-01-31T04:10:19.001Z,1.20
2019-01-31T04:12:48.017Z,1.50
2019-01-31T04:15:18.707Z,2.22
2019-01-31T04:17:57.063Z,2.42
2019-01-31T04:20:27.958Z,2.22
2019-01-31T04:22:58.283Z,2.67
2019-01-31T04:25:28.646Z,2.30
2019-01-31T04:27:59.045Z,2.35
2019-01-31T04:30:30.979Z,2.05
2019-01-31T04:33:01.415Z,2.02
2019-01-31T04:35:31.855Z,2.35
2019-01-31T04:38:02.257Z,2.00
2019-01-31T04:40:32.787Z,1.45
2019-01-31T04:43:03.261Z,1.62
2019-01-31T04:45:33.647Z,2.05
2019-01-31T04:48:04.235Z,1.75
2019-01-31T04:50:34.523Z,2.50
2019-01-31T04:53:04.972Z,2.83
2019-01-31T04:55:35.890Z,3.37
2019-01-31T04:58:06.262Z,3.92
2019-01-31T05:00:36.717Z,3.80
2019-01-31T05:03:07.210Z,3.70
2019-01-31T05:05:38.517Z,4.42
2019-01-31T05:08:08.942Z,4.10
2019-01-31T05:10:43.272Z,4.87
2019-01-31T05:13:11.506Z,12.85
2019-01-31T05:15:42.024Z,11.43
2019-01-31T05:18:12.391Z,14.00
2019-01-31T05:20:42.750Z,12.65
2019-01-31T05:23:13.100Z,6.70
2019-01-31T05:25:43.535Z,5.70
2019-01-31T05:28:15.398Z,7.08
2019-01-31T05:30:45.750Z,6.10
2019-01-31T05:33:17.310Z,5.58
2019-01-31T05:35:48.559Z,6.75
2019-01-31T05:38:18.935Z,6.33
2019-01-31T05:40:55.603Z,6.50
2019-01-31T05:43:21.428Z,7.40
2019-01-31T05:45:51.688Z,6.65
2019-01-31T05:48:22.046Z,7.25
2019-01-31T05:50:52.378Z,8.25
2019-01-31T05:53:22.731Z,8.08
2019-01-31T05:55:53.659Z,8.90
2019-01-31T05:58:23.987Z,8.78
2019-01-31T06:00:56.842Z,9.85
2019-01-31T06:03:28.098Z,8.63
2019-01-31T06:05:58.959Z,8.80
2019-01-31T06:08:29.735Z,9.20
2019-01-31T06:11:07.103Z,9.40
2019-01-31T06:13:32.191Z,9.55
2019-01-31T06:16:02.675Z,9.68
2019-01-31T06:18:33.160Z,10.05
2019-01-31T06:21:04.010Z,10.28
2019-01-31T06:23:34.443Z,10.25
2019-01-31T06:26:05.579Z,10.60
2019-01-31T06:28:35.936Z,10.95
2019-01-31T06:31:06.354Z,10.90
2019-01-31T06:33:36.708Z,12.18
2019-01-31T06:36:07.514Z,12.10
2019-01-31T06:38:37.979Z,12.18
2019-01-31T06:41:18.199Z,13.68
2019-01-31T06:43:42.498Z,13.10
2019-01-31T06:46:12.827Z,14.73
2019-01-31T06:48:43.325Z,15.18
2019-01-31T06:51:14.045Z,15.38
2019-01-31T06:53:44.370Z,16.05
2019-01-31T06:56:14.726Z,15.18
2019-01-31T06:58:45.051Z,16.57
2019-01-31T07:01:15.418Z,16.73
2019-01-31T07:03:45.838Z,16.23
2019-01-31T07:06:16.451Z,16.35
2019-01-31T07:08:46.786Z,16.10
2019-01-31T07:11:17.351Z,15.65
2019-01-31T07:13:47.721Z,15.95
2019-01-31T07:16:18.100Z,15.75
2019-01-31T07:18:48.591Z,15.58
2019-01-31T07:21:19.310Z,15.05
2019-01-31T07:23:49.683Z,13.93
2019-01-31T07:26:20.071Z,14.70
2019-01-31T07:28:50.507Z,14.50
2019-01-31T07:31:20.991Z,15.05
2019-01-31T07:33:53.371Z,13.28
2019-01-31T07:36:23.970Z,14.58
2019-01-31T07:38:58.647Z,13.80
2019-01-31T07:41:28.984Z,14.05
2019-01-31T07:43:59.411Z,14.47
2019-01-31T07:46:30.207Z,13.60
2019-01-31T07:49:00.526Z,13.50
2019-01-31T07:51:31.085Z,12.75
2019-01-31T07:54:01.604Z,13.90
2019-01-31T07:56:32.474Z,12.63
2019-01-31T07:59:02.976Z,12.75
2019-01-31T08:01:33.414Z,13.70
2019-01-31T08:04:03.934Z,14.40
2019-01-31T08:06:35.482Z,12.50
2019-01-31T08:09:08.631Z,11.83
2019-01-31T08:11:39.024Z,12.43
2019-01-31T08:14:09.459Z,12.43
2019-01-31T08:16:40.458Z,11.08
2019-01-31T08:19:10.727Z,11.35
2019-01-31T08:21:41.319Z,11.83
2019-01-31T08:24:12.038Z,10.72
2019-01-31T08:26:42.399Z,10.45
2019-01-31T08:29:12.726Z,9.98
2019-01-31T08:31:43.230Z,9.60
2019-01-31T08:34:14.610Z,9.13
2019-01-31T08:36:44.960Z,9.63
2019-01-31T08:39:15.292Z,8.33
2019-01-31T08:41:45.941Z,9.00
2019-01-31T08:44:16.567Z,8.83
2019-01-31T08:46:47.154Z,7.45
2019-01-31T08:49:17.546Z,7.72
2019-01-31T08:51:47.874Z,7.92
2019-01-31T08:54:18.119Z,8.08
2019-01-31T08:56:49.178Z,8.35
2019-01-31T08:59:20.068Z,8.00
2019-01-31T09:01:50.429Z,7.53
2019-01-31T09:04:20.769Z,8.18
2019-01-31T09:06:51.959Z,7.05
2019-01-31T09:09:22.503Z,8.28
2019-01-31T09:11:52.758Z,7.58
2019-01-31T09:14:23.084Z,7.15
2019-01-31T09:16:53.425Z,7.75
2019-01-31T09:19:23.814Z,7.22
2019-01-31T09:22:18.356Z,8.00
2019-01-31T09:25:06.218Z,7.58
2019-01-31T09:28:01.416Z,8.43
2019-01-31T09:31:08.318Z,8.75
2019-01-31T09:34:32.177Z,7.97
2019-01-31T09:37:27.407Z,8.38
2019-01-31T09:40:20.311Z,8.83
2019-01-31T09:43:26.296Z,7.70
2019-01-31T09:46:46.707Z,7.42
2019-01-31T09:49:50.494Z,7.17
2019-01-31T09:52:54.473Z,7.60
2019-01-31T09:56:09.164Z,7.47
2019-01-31T09:59:09.515Z,6.97
2019-01-31T10:02:30.242Z,7.28
2019-01-31T10:05:23.577Z,6.65
2019-01-31T10:08:31.880Z,8.25
2019-01-31T10:11:46.950Z,6.97
2019-01-31T10:14:39.295Z,6.03
2019-01-31T10:17:57.339Z,6.22
2019-01-31T10:20:41.974Z,6.50
2019-01-31T10:23:42.842Z,6.40
2019-01-31T10:26:58.663Z,6.95
2019-01-31T10:30:05.278Z,6.85
2019-01-31T10:33:00.711Z,6.85
2019-01-31T10:36:07.322Z,7.10
2019-01-31T10:38:48.673Z,7.30
2019-01-31T10:41:50.884Z,7.28
2019-01-31T10:44:47.819Z,7.00
2019-01-31T10:48:09.650Z,6.78
2019-01-31T10:51:03.670Z,7.22
2019-01-31T10:54:05.632Z,7.58
2019-01-31T10:57:24.158Z,7.65
2019-01-31T11:00:37.107Z,7.65
2019-01-31T11:03:45.130Z,7.70
2019-01-31T11:06:59.085Z,8.28
2019-01-31T11:09:41.954Z,8.23
2019-01-31T11:13:08.379Z,8.35
2019-01-31T11:16:18.074Z,8.85
2019-01-31T11:19:14.973Z,12.15
2019-01-31T11:22:25.476Z,15.30
2019-01-31T11:25:42.771Z,17.15
2019-01-31T11:28:45.893Z,18.55
2019-01-31T11:31:55.932Z,20.72
2019-01-31T11:34:59.314Z,23.40
2019-01-31T11:37:42.859Z,24.20
2019-01-31T11:41:00.079Z,24.32
2019-01-31T11:44:13.002Z,23.90
2019-01-31T11:47:05.742Z,23.67
2019-01-31T11:50:06.122Z,23.45
2019-01-31T11:53:02.383Z,23.95
2019-01-31T11:55:53.830Z,23.02
2019-01-31T11:58:57.332Z,23.83
2019-01-31T12:01:28.109Z,26.27
2019-01-31T12:04:08.283Z,25.20
2019-01-31T12:06:38.879Z,26.45
2019-01-31T12:09:12.555Z,24.18
2019-01-31T12:11:42.927Z,24.32
2019-01-31T12:14:14.053Z,26.85
2019-01-31T12:16:45.471Z,25.30
2019-01-31T12:19:15.975Z,27.52
2019-01-31T12:21:46.465Z,25.90
2019-01-31T12:24:17.612Z,25.60
2019-01-31T12:26:47.991Z,24.85
2019-01-31T12:29:18.394Z,26.68
2019-01-31T12:31:48.854Z,25.12
2019-01-31T12:34:19.227Z,26.00
2019-01-31T12:36:49.935Z,24.70
2019-01-31T12:39:22.514Z,27.48
2019-01-31T12:41:52.915Z,25.95
2019-01-31T12:44:23.250Z,27.65
2019-01-31T12:46:53.778Z,26.50
2019-01-31T12:49:24.264Z,26.80
2019-01-31T12:51:55.030Z,26.50
2019-01-31T12:54:25.484Z,24.52
2019-01-31T12:56:56.052Z,25.90
2019-01-31T12:59:26.578Z,25.95
2019-01-31T13:01:57.138Z,30.08
2019-01-31T13:04:27.505Z,27.45
2019-01-31T13:06:57.897Z,27.22
2019-01-31T13:09:28.599Z,27.52
2019-01-31T13:11:59.057Z,27.90
2019-01-31T13:14:30.154Z,27.60
2019-01-31T13:17:00.998Z,30.10
2019-01-31T13:19:31.344Z,31.48
2019-01-31T13:22:01.754Z,31.12
2019-01-31T13:24:32.191Z,30.50
2019-01-31T13:27:03.962Z,29.50
2019-01-31T13:29:34.326Z,26.82
2019-01-31T13:32:05.167Z,27.55
2019-01-31T13:34:35.534Z,27.55
2019-01-31T13:37:06.015Z,27.87
2019-01-31T13:39:36.687Z,25.15
2019-01-31T13:42:07.299Z,24.80
2019-01-31T13:44:40.092Z,26.73
2019-01-31T13:47:10.512Z,28.62
2019-01-31T13:49:41.759Z,27.85
2019-01-31T13:52:12.683Z,29.55
2019-01-31T13:54:43.350Z,28.55
2019-01-31T13:57:13.822Z,29.25
2019-01-31T13:59:44.180Z,28.32
2019-01-31T14:02:14.607Z,30.68
2019-01-31T14:04:45.001Z,30.05
2019-01-31T14:07:15.416Z,31.75
2019-01-31T14:09:45.881Z,29.65
2019-01-31T14:12:16.448Z,29.82
2019-01-31T14:14:48.427Z,31.60
2019-01-31T14:17:18.741Z,27.25
2019-01-31T14:19:49.082Z,29.23
2019-01-31T14:22:19.978Z,28.62
2019-01-31T14:24:50.468Z,29.02
2019-01-31T14:27:20.844Z,28.95
2019-01-31T14:29:52.179Z,29.77
2019-01-31T14:32:24.705Z,29.92
2019-01-31T14:34:55.163Z,29.95
2019-01-31T14:37:26.358Z,28.15
2019-01-31T14:39:56.644Z,26.05
2019-01-31T14:42:26.983Z,28.10
2019-01-31T14:44:57.355Z,29.07
2019-01-31T14:47:27.786Z,28.38
2019-01-31T14:49:58.788Z,24.72
2019-01-31T14:52:30.460Z,29.45
2019-01-31T14:55:01.237Z,29.02
2019-01-31T14:57:34.012Z,29.35
2019-01-31T15:00:16.986Z,28.65
2019-01-31T15:02:47.958Z,28.35
2019-01-31T15:05:19.283Z,28.95
2019-01-31T15:07:49.826Z,28.40
2019-01-31T15:10:22.602Z,27.50
2019-01-31T15:12:53.262Z,29.48
2019-01-31T15:15:24.696Z,25.02
2019-01-31T15:17:55.912Z,27.87
2019-01-31T15:20:37.548Z,27.98
2019-01-31T15:23:00.831Z,27.82
2019-01-31T15:25:31.323Z,27.77
2019-01-31T15:28:01.720Z,28.10
2019-01-31T15:30:34.355Z,29.10
2019-01-31T15:33:07.842Z,32.93
2019-01-31T15:35:38.839Z,31.10
2019-01-31T15:38:11.298Z,30.85
2019-01-31T15:40:44.824Z,32.60
2019-01-31T15:43:15.383Z,30.02
2019-01-31T15:45:45.847Z,27.80
2019-01-31T15:48:16.367Z,29.18
2019-01-31T15:50:46.919Z,29.25
2019-01-31T15:53:17.215Z,28.30
2019-01-31T15:55:47.723Z,30.02
2019-01-31T15:58:18.095Z,29.18
2019-01-31T16:00:53.912Z,29.50
2019-01-31T16:03:27.791Z,28.27
2019-01-31T16:05:58.315Z,27.98
2019-01-31T16:08:28.827Z,24.18
2019-01-31T16:10:59.140Z,23.85
2019-01-31T16:13:31.441Z,24.05
2019-01-31T16:16:02.812Z,23.65
2019-01-31T16:18:33.298Z,21.77
2019-01-31T16:21:04.241Z,17.73
2019-01-31T16:23:34.663Z,16.90
2019-01-31T16:26:05.164Z,18.37
2019-01-31T16:28:35.623Z,18.60
2019-01-31T16:31:06.215Z,17.37
2019-01-31T16:33:36.683Z,18.48
2019-01-31T16:36:07.178Z,19.23
2019-01-31T16:38:38.630Z,18.55
2019-01-31T16:41:09.882Z,18.73
2019-01-31T16:43:40.336Z,16.97
2019-01-31T16:46:10.812Z,16.80
2019-01-31T16:48:41.534Z,17.02
2019-01-31T16:51:11.907Z,17.82
2019-01-31T16:53:43.076Z,17.40
2019-01-31T16:56:14.330Z,16.10
2019-01-31T16:58:44.950Z,17.42
2019-01-31T17:01:16.140Z,18.10
2019-01-31T17:03:46.834Z,16.93
2019-01-31T17:06:17.231Z,18.35
2019-01-31T17:08:47.552Z,20.88
2019-01-31T17:11:17.910Z,18.90
2019-01-31T17:13:49.959Z,18.82
2019-01-31T17:16:21.102Z,19.95
2019-01-31T17:18:54.666Z,18.57
2019-01-31T17:21:26.412Z,20.55
2019-01-31T17:23:57.155Z,20.05
2019-01-31T17:26:27.531Z,23.15
2019-01-31T17:28:57.970Z,20.88
2019-01-31T17:31:28.310Z,18.80
2019-01-31T17:33:58.658Z,19.95
2019-01-31T17:36:29.342Z,19.62
2019-01-31T17:38:59.782Z,20.30
2019-01-31T17:41:30.203Z,18.73
2019-01-31T17:44:00.548Z,21.93
2019-01-31T17:46:31.682Z,20.40
2019-01-31T17:49:02.058Z,21.93
2019-01-31T17:51:32.639Z,21.95
2019-01-31T17:54:03.050Z,22.93
2019-01-31T17:56:33.498Z,24.37
2019-01-31T17:59:03.938Z,26.42
2019-01-31T18:01:34.337Z,25.62
2019-01-31T18:04:04.893Z,24.67
2019-01-31T18:06:35.546Z,23.05
2019-01-31T18:09:09.658Z,22.27
2019-01-31T18:11:40.095Z,24.27
2019-01-31T18:14:10.421Z,26.20
2019-01-31T18:16:40.742Z,23.52
2019-01-31T18:19:11.086Z,24.45
2019-01-31T18:21:41.506Z,24.50
2019-01-31T18:24:12.951Z,27.35
2019-01-31T18:26:43.226Z,27.60
2019-01-31T18:29:13.630Z,28.85
2019-01-31T18:31:45.750Z,24.23
2019-01-31T18:34:17.364Z,25.43
2019-01-31T18:36:47.811Z,25.70
2019-01-31T18:39:18.109Z,26.05
2019-01-31T18:41:48.432Z,26.07
2019-01-31T18:44:18.818Z,25.55
2019-01-31T18:46:49.150Z,25.88
2019-01-31T18:49:20.781Z,26.15
2019-01-31T18:51:51.150Z,22.90
2019-01-31T18:54:21.890Z,24.35
2019-01-31T18:56:55.038Z,25.15
2019-01-31T18:59:25.405Z,24.65
2019-01-31T19:01:55.886Z,24.10
2019-01-31T19:04:26.229Z,22.10
2019-01-31T19:06:57.476Z,20.37
2019-01-31T19:09:27.902Z,22.70
2019-01-31T19:11:58.253Z,22.70
2019-01-31T19:14:28.782Z,26.93
2019-01-31T19:17:03.627Z,24.15
2019-01-31T19:19:39.361Z,25.77
2019-01-31T19:22:10.045Z,27.55
2019-01-31T19:24:41.448Z,32.15
2019-01-31T19:27:11.980Z,27.87
2019-01-31T19:29:42.823Z,28.25
2019-01-31T19:32:15.219Z,28.10
2019-01-31T19:34:45.611Z,27.90
2019-01-31T19:37:16.035Z,25.30
2019-01-31T19:39:46.451Z,28.60
2019-01-31T19:42:16.856Z,32.13
2019-01-31T19:44:47.423Z,26.20
2019-01-31T19:47:18.783Z,22.80
2019-01-31T19:49:49.782Z,22.07
2019-01-31T19:52:20.179Z,21.70
2019-01-31T19:54:50.758Z,23.65
2019-01-31T19:57:22.295Z,23.55
2019-01-31T19:59:53.323Z,26.40
2019-01-31T20:02:35.664Z,27.65
2019-01-31T20:05:06.260Z,26.73
2019-01-31T20:07:43.158Z,26.90
2019-01-31T20:10:16.629Z,27.13
2019-01-31T20:12:49.195Z,27.25
2019-01-31T20:15:20.526Z,26.55
2019-01-31T20:17:54.538Z,25.68
2019-01-31T20:20:30.518Z,26.68
2019-01-31T20:23:03.785Z,26.82
2019-01-31T20:25:40.499Z,23.67
2019-01-31T20:28:14.523Z,25.08
2019-01-31T20:30:57.135Z,19.65
2019-01-31T20:33:31.059Z,24.60
2019-01-31T20:36:04.594Z,24.27
2019-01-31T20:38:35.009Z,26.27
2019-01-31T20:41:06.151Z,26.30
2019-01-31T20:43:36.831Z,30.23
2019-01-31T20:46:15.503Z,24.52
2019-01-31T20:48:48.829Z,27.40
2019-01-31T20:51:25.231Z,29.00
2019-01-31T20:54:03.139Z,24.35
2019-01-31T20:56:33.931Z,28.32
2019-01-31T20:59:04.811Z,28.67
2019-01-31T21:01:35.427Z,32.45
2019-01-31T21:04:06.007Z,26.07
2019-01-31T21:06:41.476Z,28.40
2019-01-31T21:09:08.751Z,25.40
2019-01-31T21:11:39.110Z,27.52
2019-01-31T21:14:13.107Z,28.40
2019-01-31T21:16:51.429Z,25.92
2019-01-31T21:19:15.566Z,29.90
2019-01-31T21:21:45.904Z,29.05
2019-01-31T21:24:28.638Z,30.08
2019-01-31T21:27:14.336Z,31.68
2019-01-31T21:29:48.166Z,32.73
2019-01-31T21:32:27.793Z,33.38
2019-01-31T21:35:06.166Z,35.45
2019-01-31T21:37:38.767Z,35.15
2019-01-31T21:40:10.634Z,36.68
2019-01-31T21:42:41.241Z,33.75
2019-01-31T21:45:14.067Z,33.67
2019-01-31T21:47:49.234Z,33.25
2019-01-31T21:50:27.539Z,33.00
2019-01-31T21:52:58.113Z,32.17
2019-01-31T21:55:28.580Z,33.67
2019-01-31T21:57:58.978Z,34.58
2019-01-31T22:00:33.611Z,34.53
2019-01-31T22:03:05.161Z,33.70
2019-01-31T22:05:37.174Z,34.23
2019-01-31T22:08:09.631Z,33.35
2019-01-31T22:10:43.266Z,33.20
2019-01-31T22:13:13.882Z,31.45
2019-01-31T22:16:00.215Z,32.75
2019-01-31T22:18:31.234Z,30.52
2019-01-31T22:21:20.078Z,32.85
2019-01-31T22:23:50.528Z,29.02
2019-01-31T22:26:27.050Z,28.62
2019-01-31T22:28:59.087Z,29.85
2019-01-31T22:31:30.287Z,31.77
2019-01-31T22:34:01.103Z,30.72
2019-01-31T22:36:32.183Z,30.02
2019-01-31T22:39:07.469Z,33.58
2019-01-31T22:41:37.887Z,33.45
2019-01-31T22:46:36.102Z,35.25
2019-01-31T22:49:06.463Z,34.67
2019-01-31T22:51:37.697Z,35.05
2019-01-31T22:54:08.251Z,34.08
2019-01-31T22:56:38.586Z,35.25
2019-01-31T22:59:15.119Z,35.33
2019-01-31T23:02:01.626Z,34.23
2019-01-31T23:04:32.385Z,34.83
2019-01-31T23:07:02.827Z,35.50
2019-01-31T23:09:33.314Z,33.58
2019-01-31T23:12:09.590Z,34.78
2019-01-31T23:14:39.963Z,34.03
2019-01-31T23:17:11.322Z,34.33
2019-01-31T23:19:42.939Z,34.70
2019-01-31T23:22:13.330Z,33.60
2019-01-31T23:24:45.627Z,32.50
2019-01-31T23:27:20.161Z,32.60
2019-01-31T23:29:50.623Z,31.80
2019-01-31T23:32:21.235Z,30.25
2019-01-31T23:34:51.609Z,30.10
2019-01-31T23:37:27.875Z,30.43
2019-01-31T23:40:01.925Z,29.87
2019-01-31T23:42:33.163Z,30.02
2019-01-31T23:45:03.838Z,30.05
2019-01-31T23:47:34.229Z,27.67
2019-01-31T23:50:05.982Z,29.82
2019-01-31T23:52:37.176Z,28.15
2019-01-31T23:55:08.579Z,28.35
2019-01-31T23:57:44.374Z,28.92
